createdAt,value
2022-12-17T00:01:07.259Z,102119.63
2022-12-17T00:06:47.267Z,102120.06
2022-12-17T00:12:27.168Z,102124.34
2022-12-17T00:18:07.413Z,102119.22
2022-12-17T00:23:48.088Z,102119.63
2022-12-17T00:29:28.796Z,102121.97
2022-12-17T00:35:09.363Z,102114.97
2022-12-17T00:40:50.182Z,102119.22
2022-12-17T00:46:30.384Z,102125.16
2022-12-17T00:52:11.004Z,102124.75
2022-12-17T00:57:50.978Z,102133.47
2022-12-17T01:03:32.409Z,102143.94
2022-12-17T01:09:12.348Z,102139.88
2022-12-17T01:14:52.517Z,102141.34
2022-12-17T01:20:43.598Z,102150.72
2022-12-17T01:26:24.021Z,102152.81
2022-12-17T01:32:04.499Z,102157.09
2022-12-17T01:37:45.101Z,102157.50
2022-12-17T01:43:31.098Z,102161.34
2022-12-17T01:49:11.269Z,102155.59
2022-12-17T01:54:51.672Z,102172.59
2022-12-17T02:00:34.204Z,102177.50
2022-12-17T02:06:49.780Z,102175.75
2022-12-17T02:12:43.723Z,102181.91
2022-12-17T02:18:29.769Z,102181.03
2022-12-17T02:24:23.597Z,102185.97
2022-12-17T02:30:08.505Z,102199.13
2022-12-17T02:36:01.137Z,102197.63
2022-12-17T02:42:00.024Z,102204.25
2022-12-17T02:47:42.585Z,102209.31
2022-12-17T02:53:26.079Z,102212.50
2022-12-17T02:59:06.023Z,102218.22
2022-12-17T03:04:45.956Z,102220.34
2022-12-17T03:10:26.837Z,102218.84
2022-12-17T03:16:06.811Z,102223.72
2022-12-17T03:21:46.780Z,102223.06
2022-12-17T03:27:27.201Z,102237.13
2022-12-17T03:33:07.661Z,102242.22
2022-12-17T03:38:48.482Z,102243.47
2022-12-17T03:44:28.766Z,102249.19
2022-12-17T03:50:08.890Z,102253.22
2022-12-17T03:55:49.451Z,102265.34
2022-12-17T04:01:29.556Z,102260.03
2022-12-17T04:07:10.320Z,102266.19
2022-12-17T04:12:50.383Z,102263.59
2022-12-17T04:18:30.860Z,102270.19
2022-12-17T04:24:11.345Z,102269.53
2022-12-17T04:29:51.620Z,102272.72
2022-12-17T04:35:31.924Z,102275.47
2022-12-17T04:41:12.088Z,102274.16
2022-12-17T04:46:52.568Z,102275.22
2022-12-17T04:52:33.145Z,102273.72
2022-12-17T04:58:13.459Z,102279.44
2022-12-17T05:03:53.647Z,102286.00
2022-12-17T05:09:33.643Z,102282.63
2022-12-17T05:15:13.593Z,102275.38
2022-12-17T05:20:54.210Z,102294.06
2022-12-17T05:26:40.203Z,102298.72
2022-12-17T05:32:20.389Z,102292.75
2022-12-17T05:38:00.528Z,102300.38
2022-12-17T05:43:41.059Z,102297.84
2022-12-17T05:49:21.631Z,102292.50
2022-12-17T05:55:02.155Z,102300.16
2022-12-17T06:00:43.093Z,102310.53
2022-12-17T06:06:23.441Z,102308.13
2022-12-17T06:12:03.870Z,102311.09
2022-12-17T06:17:44.226Z,102326.81
2022-12-17T06:23:27.875Z,102333.41
2022-12-17T06:29:08.465Z,102323.59
2022-12-17T06:34:48.830Z,102339.34
2022-12-17T06:40:29.928Z,102345.03
2022-12-17T06:46:10.927Z,102340.53
2022-12-17T06:51:50.920Z,102330.94
2022-12-17T06:57:31.167Z,102337.69
2022-12-17T07:03:15.321Z,102345.63
2022-12-17T07:08:55.404Z,102358.25
2022-12-17T07:14:37.445Z,102376.91
2022-12-17T07:20:17.661Z,102379.63
2022-12-17T07:25:58.639Z,102384.56
2022-12-17T07:31:39.018Z,102393.63
2022-12-17T07:37:20.747Z,102405.25
2022-12-17T07:43:01.411Z,102400.63
2022-12-17T07:48:41.806Z,102424.13
2022-12-17T07:54:22.287Z,102426.25
2022-12-17T08:00:02.749Z,102426.25
2022-12-17T08:05:43.328Z,102428.78
2022-12-17T08:11:24.160Z,102444.75
2022-12-17T08:17:04.835Z,102441.81
2022-12-17T08:22:44.909Z,102451.03
2022-12-17T08:28:49.488Z,102464.84
2022-12-17T08:34:25.710Z,102484.16
2022-12-17T08:40:05.732Z,102479.91
2022-12-17T08:45:45.920Z,102476.91
2022-12-17T08:51:25.977Z,102492.06
2022-12-17T08:57:05.919Z,102500.59
2022-12-17T09:02:45.952Z,102513.56
2022-12-17T09:08:26.403Z,102515.56
2022-12-17T09:14:17.065Z,102521.88
2022-12-17T09:20:08.083Z,102525.31
2022-12-17T09:25:49.233Z,102525.13
2022-12-17T09:31:37.075Z,102524.03
2022-12-17T09:37:18.051Z,102535.53
2022-12-17T09:43:08.671Z,102521.66
2022-12-17T09:48:58.871Z,102529.09
2022-12-17T09:54:59.295Z,102529.31
2022-12-17T10:00:44.795Z,102532.72
2022-12-17T10:06:31.931Z,102533.66
2022-12-17T10:12:12.534Z,102530.25
2022-12-17T10:17:52.713Z,102538.16
2022-12-17T10:23:47.584Z,102538.59
2022-12-17T10:29:50.338Z,102539.66
2022-12-17T10:35:39.534Z,102540.91
2022-12-17T10:41:21.115Z,102542.84
2022-12-17T10:47:01.637Z,102545.19
2022-12-17T10:52:50.646Z,102545.38
2022-12-17T10:58:34.525Z,102539.41
2022-12-17T11:04:16.555Z,102546.91
2022-12-17T11:10:10.431Z,102546.03
2022-12-17T11:16:03.031Z,102544.56
2022-12-17T11:21:54.620Z,102546.25
2022-12-17T11:27:43.845Z,102547.47
2022-12-17T11:33:33.532Z,102544.91
2022-12-17T11:39:34.780Z,102538.69
2022-12-17T11:45:45.802Z,102532.06
2022-12-17T11:51:35.313Z,102512.59
2022-12-17T11:57:15.353Z,102518.34
2022-12-17T12:03:04.744Z,102516.16
2022-12-17T12:08:52.502Z,102517.41
2022-12-17T12:14:54.094Z,102519.13
2022-12-17T12:20:58.192Z,102518.25
2022-12-17T12:26:48.622Z,102525.50
2022-12-17T12:32:48.442Z,102520.34
2022-12-17T12:38:46.392Z,102519.34
2022-12-17T12:45:04.312Z,102521.13
2022-12-17T12:51:00.654Z,102518.44
2022-12-17T12:56:55.760Z,102525.28
2022-12-17T13:02:38.852Z,102514.22
2022-12-17T13:08:21.230Z,102513.78
2022-12-17T13:13:56.232Z,102506.56
2022-12-17T13:19:32.378Z,102496.28
2022-12-17T13:24:57.927Z,102487.72
2022-12-17T13:30:22.319Z,102472.97
2022-12-17T13:36:13.563Z,102466.75
2022-12-17T13:41:36.165Z,102472.31
2022-12-17T13:46:57.938Z,102469.53
2022-12-17T13:52:22.266Z,102465.44
2022-12-17T13:57:48.506Z,102466.69
2022-12-17T14:03:12.263Z,102467.75
2022-12-17T14:08:35.434Z,102485.50
2022-12-17T14:13:57.923Z,102484.69
2022-12-17T14:19:19.717Z,102487.91
2022-12-17T14:24:41.618Z,102492.22
2022-12-17T14:30:21.284Z,102497.53
2022-12-17T14:35:51.491Z,102503.09
2022-12-17T14:41:33.758Z,102511.41
2022-12-17T14:47:17.766Z,102514.81
2022-12-17T14:52:47.643Z,102520.56
2022-12-17T14:58:16.619Z,102525.28
2022-12-17T15:03:41.303Z,102519.31
2022-12-17T15:09:04.938Z,102532.28
2022-12-17T15:14:26.670Z,102527.19
2022-12-17T15:19:55.611Z,102531.03
2022-12-17T15:25:19.999Z,102526.97
2022-12-17T15:30:41.799Z,102528.88
2022-12-17T15:36:03.869Z,102534.41
2022-12-17T15:41:44.656Z,102542.25
2022-12-17T15:47:06.438Z,102551.00
2022-12-17T15:52:28.474Z,102551.19
2022-12-17T15:57:50.187Z,102553.53
2022-12-17T16:03:12.026Z,102565.69
2022-12-17T16:08:34.033Z,102573.16
2022-12-17T16:13:56.239Z,102563.97
2022-12-17T16:19:18.581Z,102571.25
2022-12-17T16:24:41.093Z,102582.31
2022-12-17T16:30:03.808Z,102575.06
2022-12-17T16:35:26.703Z,102577.63
2022-12-17T16:40:48.499Z,102582.91
2022-12-17T16:46:33.549Z,102580.16
2022-12-17T16:51:57.783Z,102580.56
2022-12-17T16:57:19.663Z,102582.25
2022-12-17T17:02:41.872Z,102592.28
2022-12-17T17:08:04.580Z,102578.88
2022-12-17T17:13:26.250Z,102572.28
2022-12-17T17:18:48.458Z,102577.63
2022-12-17T17:24:16.932Z,102573.78
2022-12-17T17:29:41.915Z,102577.41
2022-12-17T17:35:04.039Z,102586.56
2022-12-17T17:40:26.112Z,102586.81
2022-12-17T17:45:48.497Z,102581.53
2022-12-17T17:51:29.470Z,102574.91
2022-12-17T17:57:01.206Z,102562.91
2022-12-17T18:02:23.078Z,102580.41
2022-12-17T18:07:45.021Z,102577.13
2022-12-17T18:13:25.084Z,102584.56
2022-12-17T18:18:47.021Z,102590.28
2022-12-17T18:24:15.215Z,102593.16
2022-12-17T18:29:37.049Z,102588.84
2022-12-17T18:34:58.760Z,102596.69
2022-12-17T18:40:20.461Z,102583.88
2022-12-17T18:45:45.108Z,102603.19
2022-12-17T18:51:07.365Z,102601.09
2022-12-17T18:56:59.627Z,102600.88
2022-12-17T19:02:13.172Z,102606.94
2022-12-17T19:07:34.961Z,102624.88
2022-12-17T19:12:56.747Z,102622.69
2022-12-17T19:18:18.579Z,102625.63
2022-12-17T19:23:40.685Z,102636.34
2022-12-17T19:29:02.889Z,102638.09
2022-12-17T19:34:24.575Z,102643.03
2022-12-17T19:39:46.289Z,102635.34
2022-12-17T19:45:08.525Z,102616.16
2022-12-17T19:50:30.262Z,102635.97
2022-12-17T19:55:51.993Z,102651.78
2022-12-17T20:01:20.259Z,102663.09
2022-12-17T20:06:43.038Z,102651.28
2022-12-17T20:12:04.885Z,102637.41
2022-12-17T20:17:26.650Z,102625.47
2022-12-17T20:22:48.338Z,102629.56
2022-12-17T20:28:10.102Z,102643.25
2022-12-17T20:33:32.357Z,102638.44
2022-12-17T20:38:54.070Z,102623.47
2022-12-17T20:44:15.818Z,102618.78
2022-12-17T20:49:37.503Z,102625.47
2022-12-17T20:54:59.158Z,102625.94
2022-12-17T21:00:20.892Z,102630.44
2022-12-17T21:05:42.629Z,102630.41
2022-12-17T21:11:05.777Z,102634.25
2022-12-17T21:16:30.675Z,102640.88
2022-12-17T21:21:52.380Z,102637.22
2022-12-17T21:27:15.044Z,102656.19
2022-12-17T21:32:37.055Z,102654.66
2022-12-17T21:37:58.781Z,102659.25
2022-12-17T21:43:20.583Z,102670.56
2022-12-17T21:48:42.988Z,102663.66
2022-12-17T21:54:08.969Z,102655.81
2022-12-17T21:59:31.301Z,102663.53
2022-12-17T22:04:53.042Z,102664.53
2022-12-17T22:10:36.257Z,102670.22
2022-12-17T22:15:56.829Z,102666.84
2022-12-17T22:21:20.369Z,102671.16
2022-12-17T22:26:42.497Z,102668.84
2022-12-17T22:32:23.075Z,102674.00
2022-12-17T22:41:42.073Z,102675.72
2022-12-17T22:44:42.469Z,102686.66
2022-12-17T22:49:11.865Z,102693.06
2022-12-17T22:54:33.560Z,102684.31
2022-12-17T22:59:55.664Z,102666.97
2022-12-17T23:05:17.421Z,102663.25
2022-12-17T23:10:39.121Z,102676.03
2022-12-17T23:16:00.791Z,102672.03
2022-12-17T23:21:25.775Z,102671.66
2022-12-17T23:26:47.415Z,102649.22
2022-12-17T23:32:09.134Z,102644.19
2022-12-17T23:37:33.902Z,102649.13
2022-12-17T23:43:00.734Z,102652.00
2022-12-17T23:48:22.420Z,102665.84
2022-12-17T23:53:44.772Z,102654.41
2022-12-17T23:59:06.480Z,102654.13
